Aviation Digital Data Service (ADDS)

Output produced by METARs form (0113 UTC 24 June 2018)
found at http://www.aviationweather.gov/adds/metars/
 
METAR text: ZBTJ 240100Z 24005MPS 210V270 CAVOK 29/18 Q1004 NOSIG
Conditions at: ZBTJ (TIANJIN/ZHANGGUI, CN) observed 0100 UTC 24 June 2018
Temperature: 29.0°C (84°F)
Dewpoint: 18.0°C (64°F) [RH = 52%]
Pressure (altimeter): 29.65 inches Hg (1004.0 mb)
Winds: from the WSW (240 degrees) at 12 MPH (10 knots; 5.2 m/s)
Visibility: 6 or more miles (10+ km)
Ceiling: ceiling and visibility are OK
Clouds: unknown
Weather: no significant weather observed at this time

METAR text: ZBTJ 240030Z 24005MPS CAVOK 29/18 Q1004 NOSIG
Conditions at: ZBTJ (TIANJIN/ZHANGGUI, CN) observed 0030 UTC 24 June 2018
Temperature: 29.0°C (84°F)
Dewpoint: 18.0°C (64°F) [RH = 52%]
Pressure (altimeter): 29.65 inches Hg (1004.0 mb)
Winds: from the WSW (240 degrees) at 12 MPH (10 knots; 5.2 m/s)
Visibility: 6 or more miles (10+ km)
Ceiling: ceiling and visibility are OK
Clouds: unknown
Weather: no significant weather observed at this time

METAR text: ZBTJ 240000Z 21004MPS 190V250 CAVOK 29/18 Q1004 NOSIG
Conditions at: ZBTJ (TIANJIN/ZHANGGUI, CN) observed 0000 UTC 24 June 2018
Temperature: 29.0°C (84°F)
Dewpoint: 18.0°C (64°F) [RH = 52%]
Pressure (altimeter): 29.65 inches Hg (1004.0 mb)
Winds: from the SSW (210 degrees) at 9 MPH (8 knots; 4.2 m/s)
Visibility: 6 or more miles (10+ km)
Ceiling: ceiling and visibility are OK
Clouds: unknown
Weather: no significant weather observed at this time

METAR text: ZBTJ 232330Z 22005MPS 190V250 CAVOK 28/17 Q1004 NOSIG
Conditions at: ZBTJ (TIANJIN/ZHANGGUI, CN) observed 2330 UTC 23 June 2018
Temperature: 28.0°C (82°F)
Dewpoint: 17.0°C (63°F) [RH = 51%]
Pressure (altimeter): 29.65 inches Hg (1004.0 mb)
Winds: from the SW (220 degrees) at 12 MPH (10 knots; 5.2 m/s)
Visibility: 6 or more miles (10+ km)
Ceiling: ceiling and visibility are OK
Clouds: unknown
Weather: no significant weather observed at this time

METAR text: ZBTJ 232300Z 21005MPS 190V250 CAVOK 27/17 Q1004 NOSIG
Conditions at: ZBTJ (TIANJIN/ZHANGGUI, CN) observed 2300 UTC 23 June 2018
Temperature: 27.0°C (81°F)
Dewpoint: 17.0°C (63°F) [RH = 54%]
Pressure (altimeter): 29.65 inches Hg (1004.0 mb)
Winds: from the SSW (210 degrees) at 12 MPH (10 knots; 5.2 m/s)
Visibility: 6 or more miles (10+ km)
Ceiling: ceiling and visibility are OK
Clouds: unknown
Weather: no significant weather observed at this time

METAR text: ZBTJ 232230Z 21005MPS CAVOK 27/16 Q1004 NOSIG
Conditions at: ZBTJ (TIANJIN/ZHANGGUI, CN) observed 2230 UTC 23 June 2018
Temperature: 27.0°C (81°F)
Dewpoint: 16.0°C (61°F) [RH = 51%]
Pressure (altimeter): 29.65 inches Hg (1004.0 mb)
Winds: from the SSW (210 degrees) at 12 MPH (10 knots; 5.2 m/s)
Visibility: 6 or more miles (10+ km)
Ceiling: ceiling and visibility are OK
Clouds: unknown
Weather: no significant weather observed at this time

METAR text: ZBTJ 232200Z 21004MPS 180V240 CAVOK 27/16 Q1003 NOSIG
Conditions at: ZBTJ (TIANJIN/ZHANGGUI, CN) observed 2200 UTC 23 June 2018
Temperature: 27.0°C (81°F)
Dewpoint: 16.0°C (61°F) [RH = 51%]
Pressure (altimeter): 29.62 inches Hg (1003.0 mb)
Winds: from the SSW (210 degrees) at 9 MPH (8 knots; 4.2 m/s)
Visibility: 6 or more miles (10+ km)
Ceiling: ceiling and visibility are OK
Clouds: unknown
Weather: no significant weather observed at this time

METAR text: ZBTJ 232130Z 22003MPS 190V260 CAVOK 27/16 Q1003 NOSIG
Conditions at: ZBTJ (TIANJIN/ZHANGGUI, CN) observed 2130 UTC 23 June 2018
Temperature: 27.0°C (81°F)
Dewpoint: 16.0°C (61°F) [RH = 51%]
Pressure (altimeter): 29.62 inches Hg (1003.0 mb)
Winds: from the SW (220 degrees) at 7 MPH (6 knots; 3.1 m/s)
Visibility: 6 or more miles (10+ km)
Ceiling: ceiling and visibility are OK
Clouds: unknown
Weather: no significant weather observed at this time

METAR text: ZBTJ 232100Z 21003MPS 180V240 CAVOK 27/16 Q1003 NOSIG
Conditions at: ZBTJ (TIANJIN/ZHANGGUI, CN) observed 2100 UTC 23 June 2018
Temperature: 27.0°C (81°F)
Dewpoint: 16.0°C (61°F) [RH = 51%]
Pressure (altimeter): 29.62 inches Hg (1003.0 mb)
Winds: from the SSW (210 degrees) at 7 MPH (6 knots; 3.1 m/s)
Visibility: 6 or more miles (10+ km)
Ceiling: ceiling and visibility are OK
Clouds: unknown
Weather: no significant weather observed at this time

METAR text: ZBTJ 232030Z 21004MPS CAVOK 27/15 Q1003 NOSIG
Conditions at: ZBTJ (TIANJIN/ZHANGGUI, CN) observed 2030 UTC 23 June 2018
Temperature: 27.0°C (81°F)
Dewpoint: 15.0°C (59°F) [RH = 48%]
Pressure (altimeter): 29.62 inches Hg (1003.0 mb)
Winds: from the SSW (210 degrees) at 9 MPH (8 knots; 4.2 m/s)
Visibility: 6 or more miles (10+ km)
Ceiling: ceiling and visibility are OK
Clouds: unknown
Weather: no significant weather observed at this time

METAR text: ZBTJ 232000Z 22004MPS CAVOK 27/15 Q1003 NOSIG
Conditions at: ZBTJ (TIANJIN/ZHANGGUI, CN) observed 2000 UTC 23 June 2018
Temperature: 27.0°C (81°F)
Dewpoint: 15.0°C (59°F) [RH = 48%]
Pressure (altimeter): 29.62 inches Hg (1003.0 mb)
Winds: from the SW (220 degrees) at 9 MPH (8 knots; 4.2 m/s)
Visibility: 6 or more miles (10+ km)
Ceiling: ceiling and visibility are OK
Clouds: unknown
Weather: no significant weather observed at this time

METAR text: ZBTJ 231930Z 21004MPS CAVOK 28/15 Q1003 NOSIG
Conditions at: ZBTJ (TIANJIN/ZHANGGUI, CN) observed 1930 UTC 23 June 2018
Temperature: 28.0°C (82°F)
Dewpoint: 15.0°C (59°F) [RH = 45%]
Pressure (altimeter): 29.62 inches Hg (1003.0 mb)
Winds: from the SSW (210 degrees) at 9 MPH (8 knots; 4.2 m/s)
Visibility: 6 or more miles (10+ km)
Ceiling: ceiling and visibility are OK
Clouds: unknown
Weather: no significant weather observed at this time

METAR text: ZBTJ 231900Z 21004MPS CAVOK 28/15 Q1002 NOSIG
Conditions at: ZBTJ (TIANJIN/ZHANGGUI, CN) observed 1900 UTC 23 June 2018
Temperature: 28.0°C (82°F)
Dewpoint: 15.0°C (59°F) [RH = 45%]
Pressure (altimeter): 29.59 inches Hg (1002.0 mb)
Winds: from the SSW (210 degrees) at 9 MPH (8 knots; 4.2 m/s)
Visibility: 6 or more miles (10+ km)
Ceiling: ceiling and visibility are OK
Clouds: unknown
Weather: no significant weather observed at this time

METAR text: ZBTJ 231830Z 22003MPS 190V270 CAVOK 29/16 Q1002 NOSIG
Conditions at: ZBTJ (TIANJIN/ZHANGGUI, CN) observed 1830 UTC 23 June 2018
Temperature: 29.0°C (84°F)
Dewpoint: 16.0°C (61°F) [RH = 45%]
Pressure (altimeter): 29.59 inches Hg (1002.0 mb)
Winds: from the SW (220 degrees) at 7 MPH (6 knots; 3.1 m/s)
Visibility: 6 or more miles (10+ km)
Ceiling: ceiling and visibility are OK
Clouds: unknown
Weather: no significant weather observed at this time

METAR text: ZBTJ 231800Z 23003MPS 190V270 CAVOK 29/15 Q1002 NOSIG
Conditions at: ZBTJ (TIANJIN/ZHANGGUI, CN) observed 1800 UTC 23 June 2018
Temperature: 29.0°C (84°F)
Dewpoint: 15.0°C (59°F) [RH = 43%]
Pressure (altimeter): 29.59 inches Hg (1002.0 mb)
Winds: from the SW (230 degrees) at 7 MPH (6 knots; 3.1 m/s)
Visibility: 6 or more miles (10+ km)
Ceiling: ceiling and visibility are OK
Clouds: unknown
Weather: no significant weather observed at this time

METAR text: ZBTJ 231730Z 22003MPS CAVOK 29/16 Q1002 NOSIG
Conditions at: ZBTJ (TIANJIN/ZHANGGUI, CN) observed 1730 UTC 23 June 2018
Temperature: 29.0°C (84°F)
Dewpoint: 16.0°C (61°F) [RH = 45%]
Pressure (altimeter): 29.59 inches Hg (1002.0 mb)
Winds: from the SW (220 degrees) at 7 MPH (6 knots; 3.1 m/s)
Visibility: 6 or more miles (10+ km)
Ceiling: ceiling and visibility are OK
Clouds: unknown
Weather: no significant weather observed at this time

METAR text: ZBTJ 231700Z 22004MPS CAVOK 29/16 Q1002 NOSIG
Conditions at: ZBTJ (TIANJIN/ZHANGGUI, CN) observed 1700 UTC 23 June 2018
Temperature: 29.0°C (84°F)
Dewpoint: 16.0°C (61°F) [RH = 45%]
Pressure (altimeter): 29.59 inches Hg (1002.0 mb)
Winds: from the SW (220 degrees) at 9 MPH (8 knots; 4.2 m/s)
Visibility: 6 or more miles (10+ km)
Ceiling: ceiling and visibility are OK
Clouds: unknown
Weather: no significant weather observed at this time

METAR text: ZBTJ 231630Z 21003MPS CAVOK 30/17 Q1001 NOSIG
Conditions at: ZBTJ (TIANJIN/ZHANGGUI, CN) observed 1630 UTC 23 June 2018
Temperature: 30.0°C (86°F)
Dewpoint: 17.0°C (63°F) [RH = 46%]
Pressure (altimeter): 29.56 inches Hg (1001.0 mb)
Winds: from the SSW (210 degrees) at 7 MPH (6 knots; 3.1 m/s)
Visibility: 6 or more miles (10+ km)
Ceiling: ceiling and visibility are OK
Clouds: unknown
Weather: no significant weather observed at this time

METAR text: ZBTJ 231600Z 21004MPS 180V240 CAVOK 30/17 Q1001 NOSIG
Conditions at: ZBTJ (TIANJIN/ZHANGGUI, CN) observed 1600 UTC 23 June 2018
Temperature: 30.0°C (86°F)
Dewpoint: 17.0°C (63°F) [RH = 46%]
Pressure (altimeter): 29.56 inches Hg (1001.0 mb)
Winds: from the SSW (210 degrees) at 9 MPH (8 knots; 4.2 m/s)
Visibility: 6 or more miles (10+ km)
Ceiling: ceiling and visibility are OK
Clouds: unknown
Weather: no significant weather observed at this time

METAR text: ZBTJ 231530Z 20004MPS CAVOK 30/17 Q1001 NOSIG
Conditions at: ZBTJ (TIANJIN/ZHANGGUI, CN) observed 1530 UTC 23 June 2018
Temperature: 30.0°C (86°F)
Dewpoint: 17.0°C (63°F) [RH = 46%]
Pressure (altimeter): 29.56 inches Hg (1001.0 mb)
Winds: from the SSW (200 degrees) at 9 MPH (8 knots; 4.2 m/s)
Visibility: 6 or more miles (10+ km)
Ceiling: ceiling and visibility are OK
Clouds: unknown
Weather: no significant weather observed at this time

METAR text: ZBTJ 231500Z 19003MPS CAVOK 30/18 Q1001 NOSIG
Conditions at: ZBTJ (TIANJIN/ZHANGGUI, CN) observed 1500 UTC 23 June 2018
Temperature: 30.0°C (86°F)
Dewpoint: 18.0°C (64°F) [RH = 49%]
Pressure (altimeter): 29.56 inches Hg (1001.0 mb)
Winds: from the S (190 degrees) at 7 MPH (6 knots; 3.1 m/s)
Visibility: 6 or more miles (10+ km)
Ceiling: ceiling and visibility are OK
Clouds: unknown
Weather: no significant weather observed at this time

METAR text: ZBTJ 231430Z 20003MPS CAVOK 30/17 Q1001 NOSIG
Conditions at: ZBTJ (TIANJIN/ZHANGGUI, CN) observed 1430 UTC 23 June 2018
Temperature: 30.0°C (86°F)
Dewpoint: 17.0°C (63°F) [RH = 46%]
Pressure (altimeter): 29.56 inches Hg (1001.0 mb)
Winds: from the SSW (200 degrees) at 7 MPH (6 knots; 3.1 m/s)
Visibility: 6 or more miles (10+ km)
Ceiling: ceiling and visibility are OK
Clouds: unknown
Weather: no significant weather observed at this time

METAR text: ZBTJ 231400Z 20003MPS CAVOK 31/17 Q1001 NOSIG
Conditions at: ZBTJ (TIANJIN/ZHANGGUI, CN) observed 1400 UTC 23 June 2018
Temperature: 31.0°C (88°F)
Dewpoint: 17.0°C (63°F) [RH = 43%]
Pressure (altimeter): 29.56 inches Hg (1001.0 mb)
Winds: from the SSW (200 degrees) at 7 MPH (6 knots; 3.1 m/s)
Visibility: 6 or more miles (10+ km)
Ceiling: ceiling and visibility are OK
Clouds: unknown
Weather: no significant weather observed at this time

METAR text: ZBTJ 231330Z 18002MPS CAVOK 30/17 Q1001 NOSIG
Conditions at: ZBTJ (TIANJIN/ZHANGGUI, CN) observed 1330 UTC 23 June 2018
Temperature: 30.0°C (86°F)
Dewpoint: 17.0°C (63°F) [RH = 46%]
Pressure (altimeter): 29.56 inches Hg (1001.0 mb)
Winds: from the S (180 degrees) at 5 MPH (4 knots; 2.1 m/s)
Visibility: 6 or more miles (10+ km)
Ceiling: ceiling and visibility are OK
Clouds: unknown
Weather: no significant weather observed at this time

METAR text: ZBTJ 231300Z 19002MPS CAVOK 31/17 Q1001 NOSIG
Conditions at: ZBTJ (TIANJIN/ZHANGGUI, CN) observed 1300 UTC 23 June 2018
Temperature: 31.0°C (88°F)
Dewpoint: 17.0°C (63°F) [RH = 43%]
Pressure (altimeter): 29.56 inches Hg (1001.0 mb)
Winds: from the S (190 degrees) at 5 MPH (4 knots; 2.1 m/s)
Visibility: 6 or more miles (10+ km)
Ceiling: ceiling and visibility are OK
Clouds: unknown
Weather: no significant weather observed at this time

METAR text: ZBTJ 231230Z 19003MPS CAVOK 32/17 Q1001 NOSIG
Conditions at: ZBTJ (TIANJIN/ZHANGGUI, CN) observed 1230 UTC 23 June 2018
Temperature: 32.0°C (90°F)
Dewpoint: 17.0°C (63°F) [RH = 41%]
Pressure (altimeter): 29.56 inches Hg (1001.0 mb)
Winds: from the S (190 degrees) at 7 MPH (6 knots; 3.1 m/s)
Visibility: 6 or more miles (10+ km)
Ceiling: ceiling and visibility are OK
Clouds: unknown
Weather: no significant weather observed at this time

METAR text: ZBTJ 231200Z 21003MPS CAVOK 33/16 Q1000 NOSIG
Conditions at: ZBTJ (TIANJIN/ZHANGGUI, CN) observed 1200 UTC 23 June 2018
Temperature: 33.0°C (91°F)
Dewpoint: 16.0°C (61°F) [RH = 36%]
Pressure (altimeter): 29.53 inches Hg (1000.0 mb)
Winds: from the SSW (210 degrees) at 7 MPH (6 knots; 3.1 m/s)
Visibility: 6 or more miles (10+ km)
Ceiling: ceiling and visibility are OK
Clouds: unknown
Weather: no significant weather observed at this time

METAR text: ZBTJ 231130Z 19003MPS CAVOK 33/17 Q1000 NOSIG
Conditions at: ZBTJ (TIANJIN/ZHANGGUI, CN) observed 1130 UTC 23 June 2018
Temperature: 33.0°C (91°F)
Dewpoint: 17.0°C (63°F) [RH = 39%]
Pressure (altimeter): 29.53 inches Hg (1000.0 mb)
Winds: from the S (190 degrees) at 7 MPH (6 knots; 3.1 m/s)
Visibility: 6 or more miles (10+ km)
Ceiling: ceiling and visibility are OK
Clouds: unknown
Weather: no significant weather observed at this time

METAR text: ZBTJ 231100Z 19003MPS 160V230 CAVOK 33/16 Q0999 NOSIG
Conditions at: ZBTJ (TIANJIN/ZHANGGUI, CN) observed 1100 UTC 23 June 2018
Temperature: 33.0°C (91°F)
Dewpoint: 16.0°C (61°F) [RH = 36%]
Pressure (altimeter): 29.50 inches Hg (999.0 mb)
Winds: from the S (190 degrees) at 7 MPH (6 knots; 3.1 m/s)
Visibility: 6 or more miles (10+ km)
Ceiling: ceiling and visibility are OK
Clouds: unknown
Weather: no significant weather observed at this time

METAR text: ZBTJ 231030Z 20004MPS CAVOK 34/15 Q0999 NOSIG
Conditions at: ZBTJ (TIANJIN/ZHANGGUI, CN) observed 1030 UTC 23 June 2018
Temperature: 34.0°C (93°F)
Dewpoint: 15.0°C (59°F) [RH = 32%]
Pressure (altimeter): 29.50 inches Hg (999.0 mb)
Winds: from the SSW (200 degrees) at 9 MPH (8 knots; 4.2 m/s)
Visibility: 6 or more miles (10+ km)
Ceiling: ceiling and visibility are OK
Clouds: unknown
Weather: no significant weather observed at this time

METAR text: ZBTJ 231000Z 22003MPS 180V260 CAVOK 34/15 Q0999 NOSIG
Conditions at: ZBTJ (TIANJIN/ZHANGGUI, CN) observed 1000 UTC 23 June 2018
Temperature: 34.0°C (93°F)
Dewpoint: 15.0°C (59°F) [RH = 32%]
Pressure (altimeter): 29.50 inches Hg (999.0 mb)
Winds: from the SW (220 degrees) at 7 MPH (6 knots; 3.1 m/s)
Visibility: 6 or more miles (10+ km)
Ceiling: ceiling and visibility are OK
Clouds: unknown
Weather: no significant weather observed at this time

METAR text: ZBTJ 230930Z 22004MPS 190V250 CAVOK 35/15 Q0999 NOSIG
Conditions at: ZBTJ (TIANJIN/ZHANGGUI, CN) observed 0930 UTC 23 June 2018
Temperature: 35.0°C (95°F)
Dewpoint: 15.0°C (59°F) [RH = 30%]
Pressure (altimeter): 29.50 inches Hg (999.0 mb)
Winds: from the SW (220 degrees) at 9 MPH (8 knots; 4.2 m/s)
Visibility: 6 or more miles (10+ km)
Ceiling: ceiling and visibility are OK
Clouds: unknown
Weather: no significant weather observed at this time

METAR text: ZBTJ 230900Z 23003MPS 200V260 CAVOK 35/15 Q0999 NOSIG
Conditions at: ZBTJ (TIANJIN/ZHANGGUI, CN) observed 0900 UTC 23 June 2018
Temperature: 35.0°C (95°F)
Dewpoint: 15.0°C (59°F) [RH = 30%]
Pressure (altimeter): 29.50 inches Hg (999.0 mb)
Winds: from the SW (230 degrees) at 7 MPH (6 knots; 3.1 m/s)
Visibility: 6 or more miles (10+ km)
Ceiling: ceiling and visibility are OK
Clouds: unknown
Weather: no significant weather observed at this time

METAR text: ZBTJ 230830Z 22004MPS 170V270 CAVOK 35/15 Q0999 NOSIG
Conditions at: ZBTJ (TIANJIN/ZHANGGUI, CN) observed 0830 UTC 23 June 2018
Temperature: 35.0°C (95°F)
Dewpoint: 15.0°C (59°F) [RH = 30%]
Pressure (altimeter): 29.50 inches Hg (999.0 mb)
Winds: from the SW (220 degrees) at 9 MPH (8 knots; 4.2 m/s)
Visibility: 6 or more miles (10+ km)
Ceiling: ceiling and visibility are OK
Clouds: unknown
Weather: no significant weather observed at this time

METAR text: ZBTJ 230800Z 22004MPS 180V270 CAVOK 35/15 Q0999 NOSIG
Conditions at: ZBTJ (TIANJIN/ZHANGGUI, CN) observed 0800 UTC 23 June 2018
Temperature: 35.0°C (95°F)
Dewpoint: 15.0°C (59°F) [RH = 30%]
Pressure (altimeter): 29.50 inches Hg (999.0 mb)
Winds: from the SW (220 degrees) at 9 MPH (8 knots; 4.2 m/s)
Visibility: 6 or more miles (10+ km)
Ceiling: ceiling and visibility are OK
Clouds: unknown
Weather: no significant weather observed at this time

METAR text: ZBTJ 230730Z 22004MPS 190V280 CAVOK 35/16 Q0999 NOSIG
Conditions at: ZBTJ (TIANJIN/ZHANGGUI, CN) observed 0730 UTC 23 June 2018
Temperature: 35.0°C (95°F)
Dewpoint: 16.0°C (61°F) [RH = 32%]
Pressure (altimeter): 29.50 inches Hg (999.0 mb)
Winds: from the SW (220 degrees) at 9 MPH (8 knots; 4.2 m/s)
Visibility: 6 or more miles (10+ km)
Ceiling: ceiling and visibility are OK
Clouds: unknown
Weather: no significant weather observed at this time

METAR text: ZBTJ 230700Z 23003MPS 110V270 CAVOK 34/16 Q1000 NOSIG
Conditions at: ZBTJ (TIANJIN/ZHANGGUI, CN) observed 0700 UTC 23 June 2018
Temperature: 34.0°C (93°F)
Dewpoint: 16.0°C (61°F) [RH = 34%]
Pressure (altimeter): 29.53 inches Hg (1000.0 mb)
Winds: from the SW (230 degrees) at 7 MPH (6 knots; 3.1 m/s)
Visibility: 6 or more miles (10+ km)
Ceiling: ceiling and visibility are OK
Clouds: unknown
Weather: no significant weather observed at this time

METAR text: ZBTJ 230630Z 23005MPS 200V260 CAVOK 34/16 Q1000 NOSIG
Conditions at: ZBTJ (TIANJIN/ZHANGGUI, CN) observed 0630 UTC 23 June 2018
Temperature: 34.0°C (93°F)
Dewpoint: 16.0°C (61°F) [RH = 34%]
Pressure (altimeter): 29.53 inches Hg (1000.0 mb)
Winds: from the SW (230 degrees) at 12 MPH (10 knots; 5.2 m/s)
Visibility: 6 or more miles (10+ km)
Ceiling: ceiling and visibility are OK
Clouds: unknown
Weather: no significant weather observed at this time

METAR text: ZBTJ 230600Z 22005MPS 190V260 CAVOK 34/16 Q1000 NOSIG
Conditions at: ZBTJ (TIANJIN/ZHANGGUI, CN) observed 0600 UTC 23 June 2018
Temperature: 34.0°C (93°F)
Dewpoint: 16.0°C (61°F) [RH = 34%]
Pressure (altimeter): 29.53 inches Hg (1000.0 mb)
Winds: from the SW (220 degrees) at 12 MPH (10 knots; 5.2 m/s)
Visibility: 6 or more miles (10+ km)
Ceiling: ceiling and visibility are OK
Clouds: unknown
Weather: no significant weather observed at this time

METAR text: ZBTJ 230530Z 24005MPS 200V280 CAVOK 33/16 Q1000 NOSIG
Conditions at: ZBTJ (TIANJIN/ZHANGGUI, CN) observed 0530 UTC 23 June 2018
Temperature: 33.0°C (91°F)
Dewpoint: 16.0°C (61°F) [RH = 36%]
Pressure (altimeter): 29.53 inches Hg (1000.0 mb)
Winds: from the WSW (240 degrees) at 12 MPH (10 knots; 5.2 m/s)
Visibility: 6 or more miles (10+ km)
Ceiling: ceiling and visibility are OK
Clouds: unknown
Weather: no significant weather observed at this time

METAR text: ZBTJ 230500Z 21005MPS 190V260 CAVOK 33/17 Q1001 NOSIG
Conditions at: ZBTJ (TIANJIN/ZHANGGUI, CN) observed 0500 UTC 23 June 2018
Temperature: 33.0°C (91°F)
Dewpoint: 17.0°C (63°F) [RH = 39%]
Pressure (altimeter): 29.56 inches Hg (1001.0 mb)
Winds: from the SSW (210 degrees) at 12 MPH (10 knots; 5.2 m/s)
Visibility: 6 or more miles (10+ km)
Ceiling: ceiling and visibility are OK
Clouds: unknown
Weather: no significant weather observed at this time

METAR text: ZBTJ 230430Z 25005MPS 200V280 CAVOK 32/18 Q1001 NOSIG
Conditions at: ZBTJ (TIANJIN/ZHANGGUI, CN) observed 0430 UTC 23 June 2018
Temperature: 32.0°C (90°F)
Dewpoint: 18.0°C (64°F) [RH = 43%]
Pressure (altimeter): 29.56 inches Hg (1001.0 mb)
Winds: from the WSW (250 degrees) at 12 MPH (10 knots; 5.2 m/s)
Visibility: 6 or more miles (10+ km)
Ceiling: ceiling and visibility are OK
Clouds: unknown
Weather: no significant weather observed at this time

METAR text: ZBTJ 230400Z 22004MPS 190V280 CAVOK 32/17 Q1001 NOSIG
Conditions at: ZBTJ (TIANJIN/ZHANGGUI, CN) observed 0400 UTC 23 June 2018
Temperature: 32.0°C (90°F)
Dewpoint: 17.0°C (63°F) [RH = 41%]
Pressure (altimeter): 29.56 inches Hg (1001.0 mb)
Winds: from the SW (220 degrees) at 9 MPH (8 knots; 4.2 m/s)
Visibility: 6 or more miles (10+ km)
Ceiling: ceiling and visibility are OK
Clouds: unknown
Weather: no significant weather observed at this time

METAR text: ZBTJ 230330Z 22004MPS 180V260 CAVOK 31/17 Q1002 NOSIG
Conditions at: ZBTJ (TIANJIN/ZHANGGUI, CN) observed 0330 UTC 23 June 2018
Temperature: 31.0°C (88°F)
Dewpoint: 17.0°C (63°F) [RH = 43%]
Pressure (altimeter): 29.59 inches Hg (1002.0 mb)
Winds: from the SW (220 degrees) at 9 MPH (8 knots; 4.2 m/s)
Visibility: 6 or more miles (10+ km)
Ceiling: ceiling and visibility are OK
Clouds: unknown
Weather: no significant weather observed at this time

METAR text: ZBTJ 230300Z 25005MPS 210V290 CAVOK 31/18 Q1002 NOSIG
Conditions at: ZBTJ (TIANJIN/ZHANGGUI, CN) observed 0300 UTC 23 June 2018
Temperature: 31.0°C (88°F)
Dewpoint: 18.0°C (64°F) [RH = 46%]
Pressure (altimeter): 29.59 inches Hg (1002.0 mb)
Winds: from the WSW (250 degrees) at 12 MPH (10 knots; 5.2 m/s)
Visibility: 6 or more miles (10+ km)
Ceiling: ceiling and visibility are OK
Clouds: unknown
Weather: no significant weather observed at this time

METAR text: ZBTJ 230230Z 24005MPS 210V270 CAVOK 30/17 Q1002 NOSIG
Conditions at: ZBTJ (TIANJIN/ZHANGGUI, CN) observed 0230 UTC 23 June 2018
Temperature: 30.0°C (86°F)
Dewpoint: 17.0°C (63°F) [RH = 46%]
Pressure (altimeter): 29.59 inches Hg (1002.0 mb)
Winds: from the WSW (240 degrees) at 12 MPH (10 knots; 5.2 m/s)
Visibility: 6 or more miles (10+ km)
Ceiling: ceiling and visibility are OK
Clouds: unknown
Weather: no significant weather observed at this time

METAR text: ZBTJ 230200Z 24006MPS 210V270 CAVOK 29/17 Q1002 NOSIG
Conditions at: ZBTJ (TIANJIN/ZHANGGUI, CN) observed 0200 UTC 23 June 2018
Temperature: 29.0°C (84°F)
Dewpoint: 17.0°C (63°F) [RH = 48%]
Pressure (altimeter): 29.59 inches Hg (1002.0 mb)
Winds: from the WSW (240 degrees) at 14 MPH (12 knots; 6.2 m/s)
Visibility: 6 or more miles (10+ km)
Ceiling: ceiling and visibility are OK
Clouds: unknown
Weather: no significant weather observed at this time

METAR text: ZBTJ 230130Z 25004G09MPS 220V290 CAVOK 28/17 Q1003 NOSIG
Conditions at: ZBTJ (TIANJIN/ZHANGGUI, CN) observed 0130 UTC 23 June 2018
Temperature: 28.0°C (82°F)
Dewpoint: 17.0°C (63°F) [RH = 51%]
Pressure (altimeter): 29.62 inches Hg (1003.0 mb)
Winds: from the WSW (250 degrees) at 9 MPH (8 knots; 4.2 m/s)
gusting to 20 MPH (17 knots; 8.8 m/s)
Visibility: 6 or more miles (10+ km)
Ceiling: ceiling and visibility are OK
Clouds: unknown
Weather: no significant weather observed at this time

METAR text: ZBTJ 230100Z 24006MPS CAVOK 27/15 Q1003 NOSIG
Conditions at: ZBTJ (TIANJIN/ZHANGGUI, CN) observed 0100 UTC 23 June 2018
Temperature: 27.0°C (81°F)
Dewpoint: 15.0°C (59°F) [RH = 48%]
Pressure (altimeter): 29.62 inches Hg (1003.0 mb)
Winds: from the WSW (240 degrees) at 14 MPH (12 knots; 6.2 m/s)
Visibility: 6 or more miles (10+ km)
Ceiling: ceiling and visibility are OK
Clouds: unknown
Weather: no significant weather observed at this time

METAR text: ZBTJ 230030Z 25004MPS 220V290 CAVOK 27/16 Q1003 NOSIG
Conditions at: ZBTJ (TIANJIN/ZHANGGUI, CN) observed 0030 UTC 23 June 2018
Temperature: 27.0°C (81°F)
Dewpoint: 16.0°C (61°F) [RH = 51%]
Pressure (altimeter): 29.62 inches Hg (1003.0 mb)
Winds: from the WSW (250 degrees) at 9 MPH (8 knots; 4.2 m/s)
Visibility: 6 or more miles (10+ km)
Ceiling: ceiling and visibility are OK
Clouds: unknown
Weather: no significant weather observed at this time

METAR text: ZBTJ 230000Z 24007MPS CAVOK 26/15 Q1003 NOSIG
Conditions at: ZBTJ (TIANJIN/ZHANGGUI, CN) observed 0000 UTC 23 June 2018
Temperature: 26.0°C (79°F)
Dewpoint: 15.0°C (59°F) [RH = 51%]
Pressure (altimeter): 29.62 inches Hg (1003.0 mb)
Winds: from the WSW (240 degrees) at 16 MPH (14 knots; 7.3 m/s)
Visibility: 6 or more miles (10+ km)
Ceiling: ceiling and visibility are OK
Clouds: unknown
Weather: no significant weather observed at this time

METAR text: ZBTJ 222330Z 24007MPS 210V270 CAVOK 25/13 Q1003 NOSIG
Conditions at: ZBTJ (TIANJIN/ZHANGGUI, CN) observed 2330 UTC 22 June 2018
Temperature: 25.0°C (77°F)
Dewpoint: 13.0°C (55°F) [RH = 47%]
Pressure (altimeter): 29.62 inches Hg (1003.0 mb)
Winds: from the WSW (240 degrees) at 16 MPH (14 knots; 7.3 m/s)
Visibility: 6 or more miles (10+ km)
Ceiling: ceiling and visibility are OK
Clouds: unknown
Weather: no significant weather observed at this time

METAR text: ZBTJ 222300Z 24006MPS CAVOK 25/13 Q1003 NOSIG
Conditions at: ZBTJ (TIANJIN/ZHANGGUI, CN) observed 2300 UTC 22 June 2018
Temperature: 25.0°C (77°F)
Dewpoint: 13.0°C (55°F) [RH = 47%]
Pressure (altimeter): 29.62 inches Hg (1003.0 mb)
Winds: from the WSW (240 degrees) at 14 MPH (12 knots; 6.2 m/s)
Visibility: 6 or more miles (10+ km)
Ceiling: ceiling and visibility are OK
Clouds: unknown
Weather: no significant weather observed at this time

METAR text: ZBTJ 222230Z 24005MPS CAVOK 25/12 Q1003 NOSIG
Conditions at: ZBTJ (TIANJIN/ZHANGGUI, CN) observed 2230 UTC 22 June 2018
Temperature: 25.0°C (77°F)
Dewpoint: 12.0°C (54°F) [RH = 44%]
Pressure (altimeter): 29.62 inches Hg (1003.0 mb)
Winds: from the WSW (240 degrees) at 12 MPH (10 knots; 5.2 m/s)
Visibility: 6 or more miles (10+ km)
Ceiling: ceiling and visibility are OK
Clouds: unknown
Weather: no significant weather observed at this time

METAR text: ZBTJ 222200Z 25006MPS CAVOK 25/11 Q1003 NOSIG
Conditions at: ZBTJ (TIANJIN/ZHANGGUI, CN) observed 2200 UTC 22 June 2018
Temperature: 25.0°C (77°F)
Dewpoint: 11.0°C (52°F) [RH = 41%]
Pressure (altimeter): 29.62 inches Hg (1003.0 mb)
Winds: from the WSW (250 degrees) at 14 MPH (12 knots; 6.2 m/s)
Visibility: 6 or more miles (10+ km)
Ceiling: ceiling and visibility are OK
Clouds: unknown
Weather: no significant weather observed at this time

METAR text: ZBTJ 222130Z 25005MPS CAVOK 26/10 Q1003 NOSIG
Conditions at: ZBTJ (TIANJIN/ZHANGGUI, CN) observed 2130 UTC 22 June 2018
Temperature: 26.0°C (79°F)
Dewpoint: 10.0°C (50°F) [RH = 37%]
Pressure (altimeter): 29.62 inches Hg (1003.0 mb)
Winds: from the WSW (250 degrees) at 12 MPH (10 knots; 5.2 m/s)
Visibility: 6 or more miles (10+ km)
Ceiling: ceiling and visibility are OK
Clouds: unknown
Weather: no significant weather observed at this time

METAR text: ZBTJ 222100Z 25005MPS 220V280 CAVOK 26/10 Q1003 NOSIG
Conditions at: ZBTJ (TIANJIN/ZHANGGUI, CN) observed 2100 UTC 22 June 2018
Temperature: 26.0°C (79°F)
Dewpoint: 10.0°C (50°F) [RH = 37%]
Pressure (altimeter): 29.62 inches Hg (1003.0 mb)
Winds: from the WSW (250 degrees) at 12 MPH (10 knots; 5.2 m/s)
Visibility: 6 or more miles (10+ km)
Ceiling: ceiling and visibility are OK
Clouds: unknown
Weather: no significant weather observed at this time

METAR text: ZBTJ 222030Z 23006MPS 200V260 CAVOK 27/09 Q1003 NOSIG
Conditions at: ZBTJ (TIANJIN/ZHANGGUI, CN) observed 2030 UTC 22 June 2018
Temperature: 27.0°C (81°F)
Dewpoint: 9.0°C (48°F) [RH = 32%]
Pressure (altimeter): 29.62 inches Hg (1003.0 mb)
Winds: from the SW (230 degrees) at 14 MPH (12 knots; 6.2 m/s)
Visibility: 6 or more miles (10+ km)
Ceiling: ceiling and visibility are OK
Clouds: unknown
Weather: no significant weather observed at this time

METAR text: ZBTJ 222000Z 23005MPS CAVOK 27/09 Q1003 NOSIG
Conditions at: ZBTJ (TIANJIN/ZHANGGUI, CN) observed 2000 UTC 22 June 2018
Temperature: 27.0°C (81°F)
Dewpoint: 9.0°C (48°F) [RH = 32%]
Pressure (altimeter): 29.62 inches Hg (1003.0 mb)
Winds: from the SW (230 degrees) at 12 MPH (10 knots; 5.2 m/s)
Visibility: 6 or more miles (10+ km)
Ceiling: ceiling and visibility are OK
Clouds: unknown
Weather: no significant weather observed at this time

METAR text: ZBTJ 221930Z 22004MPS 180V260 CAVOK 27/10 Q1002 NOSIG
Conditions at: ZBTJ (TIANJIN/ZHANGGUI, CN) observed 1930 UTC 22 June 2018
Temperature: 27.0°C (81°F)
Dewpoint: 10.0°C (50°F) [RH = 34%]
Pressure (altimeter): 29.59 inches Hg (1002.0 mb)
Winds: from the SW (220 degrees) at 9 MPH (8 knots; 4.2 m/s)
Visibility: 6 or more miles (10+ km)
Ceiling: ceiling and visibility are OK
Clouds: unknown
Weather: no significant weather observed at this time

METAR text: ZBTJ 221900Z 22004MPS 190V250 CAVOK 28/10 Q1002 NOSIG
Conditions at: ZBTJ (TIANJIN/ZHANGGUI, CN) observed 1900 UTC 22 June 2018
Temperature: 28.0°C (82°F)
Dewpoint: 10.0°C (50°F) [RH = 32%]
Pressure (altimeter): 29.59 inches Hg (1002.0 mb)
Winds: from the SW (220 degrees) at 9 MPH (8 knots; 4.2 m/s)
Visibility: 6 or more miles (10+ km)
Ceiling: ceiling and visibility are OK
Clouds: unknown
Weather: no significant weather observed at this time

METAR text: ZBTJ 221830Z 21004MPS CAVOK 28/14 Q1002 NOSIG
Conditions at: ZBTJ (TIANJIN/ZHANGGUI, CN) observed 1830 UTC 22 June 2018
Temperature: 28.0°C (82°F)
Dewpoint: 14.0°C (57°F) [RH = 42%]
Pressure (altimeter): 29.59 inches Hg (1002.0 mb)
Winds: from the SSW (210 degrees) at 9 MPH (8 knots; 4.2 m/s)
Visibility: 6 or more miles (10+ km)
Ceiling: ceiling and visibility are OK
Clouds: unknown
Weather: no significant weather observed at this time

METAR text: ZBTJ 221800Z 21003MPS CAVOK 28/16 Q1003 NOSIG
Conditions at: ZBTJ (TIANJIN/ZHANGGUI, CN) observed 1800 UTC 22 June 2018
Temperature: 28.0°C (82°F)
Dewpoint: 16.0°C (61°F) [RH = 48%]
Pressure (altimeter): 29.62 inches Hg (1003.0 mb)
Winds: from the SSW (210 degrees) at 7 MPH (6 knots; 3.1 m/s)
Visibility: 6 or more miles (10+ km)
Ceiling: ceiling and visibility are OK
Clouds: unknown
Weather: no significant weather observed at this time

METAR text: ZBTJ 221730Z 19005MPS CAVOK 28/16 Q1003 NOSIG
Conditions at: ZBTJ (TIANJIN/ZHANGGUI, CN) observed 1730 UTC 22 June 2018
Temperature: 28.0°C (82°F)
Dewpoint: 16.0°C (61°F) [RH = 48%]
Pressure (altimeter): 29.62 inches Hg (1003.0 mb)
Winds: from the S (190 degrees) at 12 MPH (10 knots; 5.2 m/s)
Visibility: 6 or more miles (10+ km)
Ceiling: ceiling and visibility are OK
Clouds: unknown
Weather: no significant weather observed at this time

METAR text: ZBTJ 221700Z 19003MPS 160V220 8000 NSC 27/18 Q1003 NOSIG
Conditions at: ZBTJ (TIANJIN/ZHANGGUI, CN) observed 1700 UTC 22 June 2018
Temperature: 27.0°C (81°F)
Dewpoint: 18.0°C (64°F) [RH = 58%]
Pressure (altimeter): 29.62 inches Hg (1003.0 mb)
Winds: from the S (190 degrees) at 7 MPH (6 knots; 3.1 m/s)
Visibility: 5 miles (8 km)
Ceiling: at least 12,000 feet AGL
Clouds: sky clear below 12,000 feet AGL
Weather: no significant weather observed at this time

METAR text: ZBTJ 221630Z 17002MPS 5000 HZ NSC 26/20 Q1003 NOSIG
Conditions at: ZBTJ (TIANJIN/ZHANGGUI, CN) observed 1630 UTC 22 June 2018
Temperature: 26.0°C (79°F)
Dewpoint: 20.0°C (68°F) [RH = 70%]
Pressure (altimeter): 29.62 inches Hg (1003.0 mb)
Winds: from the S (170 degrees) at 5 MPH (4 knots; 2.1 m/s)
Visibility: 3 miles (5 km)
Ceiling: at least 12,000 feet AGL
Clouds: sky clear below 12,000 feet AGL
Weather: HZ  (haze)

METAR text: ZBTJ 221600Z 16003MPS 5000 HZ NSC 26/20 Q1003 NOSIG
Conditions at: ZBTJ (TIANJIN/ZHANGGUI, CN) observed 1600 UTC 22 June 2018
Temperature: 26.0°C (79°F)
Dewpoint: 20.0°C (68°F) [RH = 70%]
Pressure (altimeter): 29.62 inches Hg (1003.0 mb)
Winds: from the SSE (160 degrees) at 7 MPH (6 knots; 3.1 m/s)
Visibility: 3 miles (5 km)
Ceiling: at least 12,000 feet AGL
Clouds: sky clear below 12,000 feet AGL
Weather: HZ  (haze)

METAR text: ZBTJ 221530Z 18003MPS 7000 -RA NSC 27/19 Q1003 NOSIG
Conditions at: ZBTJ (TIANJIN/ZHANGGUI, CN) observed 1530 UTC 22 June 2018
Temperature: 27.0°C (81°F)
Dewpoint: 19.0°C (66°F) [RH = 62%]
Pressure (altimeter): 29.62 inches Hg (1003.0 mb)
Winds: from the S (180 degrees) at 7 MPH (6 knots; 3.1 m/s)
Visibility: 4 miles (7 km)
Ceiling: at least 12,000 feet AGL
Clouds: sky clear below 12,000 feet AGL
Weather: -RA  (light rain)

METAR text: ZBTJ 221500Z 17003MPS 8000 NSC 27/19 Q1003 NOSIG
Conditions at: ZBTJ (TIANJIN/ZHANGGUI, CN) observed 1500 UTC 22 June 2018
Temperature: 27.0°C (81°F)
Dewpoint: 19.0°C (66°F) [RH = 62%]
Pressure (altimeter): 29.62 inches Hg (1003.0 mb)
Winds: from the S (170 degrees) at 7 MPH (6 knots; 3.1 m/s)
Visibility: 5 miles (8 km)
Ceiling: at least 12,000 feet AGL
Clouds: sky clear below 12,000 feet AGL
Weather: no significant weather observed at this time

METAR text: ZBTJ 221430Z 16003MPS CAVOK 27/18 Q1003 NOSIG
Conditions at: ZBTJ (TIANJIN/ZHANGGUI, CN) observed 1430 UTC 22 June 2018
Temperature: 27.0°C (81°F)
Dewpoint: 18.0°C (64°F) [RH = 58%]
Pressure (altimeter): 29.62 inches Hg (1003.0 mb)
Winds: from the SSE (160 degrees) at 7 MPH (6 knots; 3.1 m/s)
Visibility: 6 or more miles (10+ km)
Ceiling: ceiling and visibility are OK
Clouds: unknown
Weather: no significant weather observed at this time

METAR text: ZBTJ 221400Z 17002MPS CAVOK 26/16 Q1004 NOSIG
Conditions at: ZBTJ (TIANJIN/ZHANGGUI, CN) observed 1400 UTC 22 June 2018
Temperature: 26.0°C (79°F)
Dewpoint: 16.0°C (61°F) [RH = 54%]
Pressure (altimeter): 29.65 inches Hg (1004.0 mb)
Winds: from the S (170 degrees) at 5 MPH (4 knots; 2.1 m/s)
Visibility: 6 or more miles (10+ km)
Ceiling: ceiling and visibility are OK
Clouds: unknown
Weather: no significant weather observed at this time

METAR text: ZBTJ 221330Z 17002MPS CAVOK 27/16 Q1004 NOSIG
Conditions at: ZBTJ (TIANJIN/ZHANGGUI, CN) observed 1330 UTC 22 June 2018
Temperature: 27.0°C (81°F)
Dewpoint: 16.0°C (61°F) [RH = 51%]
Pressure (altimeter): 29.65 inches Hg (1004.0 mb)
Winds: from the S (170 degrees) at 5 MPH (4 knots; 2.1 m/s)
Visibility: 6 or more miles (10+ km)
Ceiling: ceiling and visibility are OK
Clouds: unknown
Weather: no significant weather observed at this time